createdAt,value
2023-05-19T00:00:55.967Z,2.80
2023-05-19T00:03:23.056Z,3.05
2023-05-19T00:05:52.762Z,2.83
2023-05-19T00:08:20.161Z,3.20
2023-05-19T00:10:48.806Z,3.20
2023-05-19T00:13:15.817Z,3.20
2023-05-19T00:15:42.881Z,3.03
2023-05-19T00:18:09.614Z,3.25
2023-05-19T00:20:36.198Z,3.13
2023-05-19T00:23:02.816Z,3.13
2023-05-19T00:25:29.438Z,3.17
2023-05-19T00:27:57.401Z,3.08
2023-05-19T00:30:24.019Z,3.05
2023-05-19T00:32:51.184Z,2.90
2023-05-19T00:35:18.226Z,3.10
2023-05-19T00:37:44.802Z,2.97
2023-05-19T00:40:11.781Z,3.03
2023-05-19T00:42:38.723Z,3.35
2023-05-19T00:45:08.174Z,3.20
2023-05-19T00:47:34.895Z,3.25
2023-05-19T00:50:01.637Z,3.20
2023-05-19T00:52:28.372Z,2.88
2023-05-19T00:54:55.829Z,3.10
2023-05-19T00:57:22.688Z,2.50
2023-05-19T00:59:49.351Z,2.75
2023-05-19T01:02:17.425Z,3.25
2023-05-19T01:04:45.081Z,3.30
2023-05-19T01:07:11.685Z,3.50
2023-05-19T01:09:38.865Z,2.67
2023-05-19T01:12:08.662Z,2.88
2023-05-19T01:14:35.453Z,2.72
2023-05-19T01:17:07.617Z,2.65
2023-05-19T01:20:00.753Z,2.70
2023-05-19T01:22:53.806Z,2.50
2023-05-19T01:25:36.794Z,3.28
2023-05-19T01:28:44.986Z,2.95
2023-05-19T01:31:14.964Z,2.92
2023-05-19T01:33:43.486Z,3.25
2023-05-19T01:36:13.010Z,3.08
2023-05-19T01:38:40.441Z,3.78
2023-05-19T01:41:09.553Z,3.35
2023-05-19T01:43:36.395Z,3.10
2023-05-19T01:46:03.273Z,3.03
2023-05-19T01:48:32.448Z,3.20
2023-05-19T01:50:59.301Z,3.72
2023-05-19T01:53:26.449Z,3.30
2023-05-19T01:55:55.063Z,2.78
2023-05-19T01:58:36.521Z,2.97
2023-05-19T02:01:12.997Z,3.45
2023-05-19T02:04:00.576Z,2.92
2023-05-19T02:06:37.205Z,3.30
2023-05-19T02:09:11.934Z,3.85
2023-05-19T02:11:42.061Z,3.78
2023-05-19T02:14:15.699Z,3.67
2023-05-19T02:16:45.474Z,3.42
2023-05-19T02:19:22.157Z,3.40
2023-05-19T02:21:48.863Z,3.40
2023-05-19T02:24:15.434Z,3.40
2023-05-19T02:26:42.252Z,3.42
2023-05-19T02:29:09.223Z,4.30
2023-05-19T02:31:35.932Z,3.05
2023-05-19T02:34:02.655Z,3.38
2023-05-19T02:36:34.402Z,3.25
2023-05-19T02:39:01.152Z,3.20
2023-05-19T02:41:27.955Z,3.50
2023-05-19T02:43:54.573Z,3.30
2023-05-19T02:46:21.315Z,3.63
2023-05-19T02:48:47.995Z,3.60
2023-05-19T02:51:14.671Z,3.08
2023-05-19T02:53:42.629Z,3.28
2023-05-19T02:56:09.458Z,3.50
2023-05-19T02:58:36.064Z,3.75
2023-05-19T03:01:02.711Z,3.55
2023-05-19T03:03:29.521Z,3.88
2023-05-19T03:05:56.161Z,3.70
2023-05-19T03:08:22.765Z,3.42
2023-05-19T03:10:50.769Z,4.20
2023-05-19T03:13:17.327Z,3.83
2023-05-19T03:15:43.955Z,3.67
2023-05-19T03:18:10.582Z,3.78
2023-05-19T03:20:37.928Z,3.88
2023-05-19T03:23:05.697Z,3.63
2023-05-19T03:25:32.320Z,4.30
2023-05-19T03:28:00.291Z,4.10
2023-05-19T03:30:26.983Z,4.20
2023-05-19T03:33:08.580Z,3.88
2023-05-19T03:35:35.290Z,4.40
2023-05-19T03:38:02.084Z,4.78
2023-05-19T03:40:29.908Z,3.88
2023-05-19T03:43:04.414Z,4.18
2023-05-19T03:45:33.643Z,4.40
2023-05-19T03:48:10.448Z,4.07
2023-05-19T03:50:59.808Z,4.65
2023-05-19T03:53:26.959Z,4.18
2023-05-19T03:55:53.630Z,4.80
2023-05-19T03:58:21.592Z,4.28
2023-05-19T04:00:48.327Z,4.38
2023-05-19T04:03:15.043Z,4.65
2023-05-19T04:05:41.939Z,4.60
2023-05-19T04:08:08.579Z,5.03
2023-05-19T04:10:35.138Z,4.90
2023-05-19T04:13:01.798Z,5.03
2023-05-19T04:15:29.873Z,5.20
2023-05-19T04:17:56.626Z,5.30
2023-05-19T04:20:23.295Z,4.90
2023-05-19T04:22:50.749Z,5.18
2023-05-19T04:25:17.569Z,5.05
2023-05-19T04:27:44.257Z,5.18
2023-05-19T04:30:11.551Z,4.97
2023-05-19T04:32:40.397Z,5.20
2023-05-19T04:35:07.551Z,6.13
2023-05-19T04:37:34.213Z,5.05
2023-05-19T04:40:01.415Z,5.80
2023-05-19T04:42:28.077Z,5.40
2023-05-19T04:44:55.325Z,5.68
2023-05-19T04:47:23.556Z,5.55
2023-05-19T04:49:51.655Z,6.20
2023-05-19T04:52:18.546Z,5.70
2023-05-19T04:54:45.164Z,5.50
2023-05-19T04:57:13.339Z,6.75
2023-05-19T04:59:40.100Z,5.40
2023-05-19T05:02:08.153Z,5.82
2023-05-19T05:04:36.736Z,5.95
2023-05-19T05:07:04.998Z,6.53
2023-05-19T05:09:32.626Z,7.07
2023-05-19T05:12:01.433Z,6.72
2023-05-19T05:14:28.814Z,6.28
2023-05-19T05:16:55.968Z,6.53
2023-05-19T05:19:24.897Z,6.72
2023-05-19T05:21:52.448Z,6.10
2023-05-19T05:24:21.534Z,5.95
2023-05-19T05:26:53.682Z,6.47
2023-05-19T05:29:20.615Z,6.30
2023-05-19T05:31:47.225Z,6.63
2023-05-19T05:34:14.080Z,6.72
2023-05-19T05:36:40.729Z,6.88
2023-05-19T05:39:08.364Z,6.57
2023-05-19T05:41:37.807Z,6.65
2023-05-19T05:44:10.092Z,6.95
2023-05-19T05:46:39.300Z,6.35
2023-05-19T05:49:06.472Z,6.45
2023-05-19T05:51:33.826Z,6.90
2023-05-19T05:54:02.463Z,6.68
2023-05-19T05:56:38.414Z,6.00
2023-05-19T05:59:07.756Z,6.85
2023-05-19T06:01:35.576Z,6.35
2023-05-19T06:04:04.807Z,6.57
2023-05-19T06:06:31.802Z,6.22
2023-05-19T06:09:00.102Z,5.93
2023-05-19T06:11:27.928Z,6.47
2023-05-19T06:13:58.357Z,6.47
2023-05-19T06:16:50.084Z,6.78
2023-05-19T06:19:18.448Z,6.20
2023-05-19T06:21:45.537Z,5.80
2023-05-19T06:24:12.763Z,5.95
2023-05-19T06:26:39.488Z,5.72
2023-05-19T06:29:07.436Z,6.13
2023-05-19T06:31:34.216Z,6.00
2023-05-19T06:34:12.167Z,6.00
2023-05-19T06:36:39.551Z,5.43
2023-05-19T06:39:06.240Z,5.57
2023-05-19T06:41:32.929Z,5.15
2023-05-19T06:43:59.595Z,5.40
2023-05-19T06:46:27.624Z,5.40
2023-05-19T06:48:54.328Z,4.95
2023-05-19T06:51:23.902Z,5.40
2023-05-19T06:53:55.036Z,4.35
2023-05-19T06:56:22.895Z,5.35
2023-05-19T06:58:49.837Z,5.55
2023-05-19T07:01:16.853Z,5.10
2023-05-19T07:03:50.695Z,5.13
2023-05-19T07:06:17.501Z,5.05
2023-05-19T07:08:44.238Z,5.03
2023-05-19T07:11:12.139Z,4.80
2023-05-19T07:13:39.955Z,3.95
2023-05-19T07:16:06.921Z,4.03
2023-05-19T07:18:33.678Z,4.10
2023-05-19T07:21:01.653Z,3.83
2023-05-19T07:23:28.368Z,3.92
2023-05-19T07:25:56.170Z,4.43
2023-05-19T07:28:22.943Z,4.10
2023-05-19T07:30:49.657Z,4.35
2023-05-19T07:33:16.278Z,3.90
2023-05-19T07:35:43.137Z,4.60
2023-05-19T07:38:11.231Z,4.38
2023-05-19T07:40:37.896Z,4.05
2023-05-19T07:43:04.512Z,9.75
2023-05-19T07:45:31.154Z,3.75
2023-05-19T07:47:57.784Z,4.03
2023-05-19T07:50:24.491Z,4.20
2023-05-19T07:52:51.117Z,4.57
2023-05-19T07:55:19.036Z,3.63
2023-05-19T07:57:45.745Z,3.63
2023-05-19T08:00:13.409Z,3.75
2023-05-19T08:02:41.050Z,3.45
2023-05-19T08:05:08.791Z,4.05
2023-05-19T08:07:35.404Z,3.92
2023-05-19T08:10:02.396Z,3.17
2023-05-19T08:12:30.371Z,3.70
2023-05-19T08:14:58.183Z,3.50
2023-05-19T08:17:26.344Z,3.13
2023-05-19T08:19:52.947Z,3.78
2023-05-19T08:22:19.544Z,3.10
2023-05-19T08:24:46.441Z,3.78
2023-05-19T08:27:13.019Z,3.00
2023-05-19T08:29:40.982Z,3.08
2023-05-19T08:32:08.063Z,3.28
2023-05-19T08:34:34.839Z,2.53
2023-05-19T08:37:01.460Z,2.80
2023-05-19T08:39:28.160Z,2.30
2023-05-19T08:41:55.069Z,2.17
2023-05-19T08:44:21.734Z,1.75
2023-05-19T08:46:49.921Z,1.45
2023-05-19T08:49:25.350Z,2.10
2023-05-19T08:51:58.978Z,1.67
2023-05-19T08:54:32.776Z,1.70
2023-05-19T08:57:00.202Z,1.75
2023-05-19T08:59:26.903Z,1.35
2023-05-19T09:01:55.599Z,1.92
2023-05-19T09:04:22.764Z,1.65
2023-05-19T09:06:49.423Z,1.63
2023-05-19T09:09:18.582Z,1.77
2023-05-19T09:11:46.466Z,2.03
2023-05-19T09:14:13.064Z,1.52
2023-05-19T09:16:40.130Z,1.70
2023-05-19T09:19:13.751Z,1.52
2023-05-19T09:21:40.393Z,1.73
2023-05-19T09:24:09.260Z,1.30
2023-05-19T09:26:36.777Z,1.73
2023-05-19T09:29:10.859Z,1.55
2023-05-19T09:31:37.537Z,2.00
2023-05-19T09:34:04.199Z,1.92
2023-05-19T09:36:32.228Z,2.15
2023-05-19T09:38:58.923Z,1.60
2023-05-19T09:41:25.546Z,2.20
2023-05-19T09:43:54.955Z,1.90
2023-05-19T09:46:25.313Z,1.65
2023-05-19T09:48:57.120Z,1.80
2023-05-19T09:51:24.120Z,1.92
2023-05-19T09:53:52.156Z,1.88
2023-05-19T09:56:18.800Z,1.80
2023-05-19T09:58:45.622Z,1.85
2023-05-19T10:01:12.553Z,1.70
2023-05-19T10:03:40.285Z,1.73
2023-05-19T10:06:07.976Z,1.50
2023-05-19T10:08:35.041Z,1.75
2023-05-19T10:11:03.413Z,1.73
2023-05-19T10:13:31.591Z,1.73
2023-05-19T10:16:00.055Z,1.60
2023-05-19T10:18:27.310Z,2.00
2023-05-19T10:20:54.500Z,1.90
2023-05-19T10:23:21.158Z,2.00
2023-05-19T10:25:49.088Z,1.80
2023-05-19T10:28:19.677Z,1.77
2023-05-19T10:30:49.355Z,1.70
2023-05-19T10:33:19.279Z,1.40
2023-05-19T10:36:11.230Z,1.50
2023-05-19T10:38:45.528Z,1.90
2023-05-19T10:41:22.508Z,1.25
2023-05-19T10:43:56.874Z,1.60
2023-05-19T10:46:24.835Z,1.70
2023-05-19T10:48:51.538Z,1.20
2023-05-19T10:51:18.297Z,1.65
2023-05-19T10:53:45.202Z,1.50
2023-05-19T10:56:12.186Z,1.48
2023-05-19T10:58:40.303Z,1.45
2023-05-19T11:01:15.112Z,1.42
2023-05-19T11:03:46.348Z,1.77
2023-05-19T11:06:20.192Z,1.60
2023-05-19T11:08:47.016Z,2.28
2023-05-19T11:11:15.108Z,1.60
2023-05-19T11:13:46.755Z,1.50
2023-05-19T11:16:18.377Z,1.33
2023-05-19T11:18:48.457Z,1.40
2023-05-19T11:21:15.094Z,1.10
2023-05-19T11:23:41.814Z,1.30
2023-05-19T11:26:08.920Z,1.88
2023-05-19T11:28:36.776Z,1.38
2023-05-19T11:31:05.019Z,1.48
2023-05-19T11:33:33.683Z,1.70
2023-05-19T11:36:00.474Z,1.30
2023-05-19T11:38:28.575Z,1.52
2023-05-19T11:40:56.021Z,1.75
2023-05-19T11:43:23.435Z,1.60
2023-05-19T11:45:50.223Z,1.92
2023-05-19T11:48:20.018Z,1.45
2023-05-19T11:50:48.896Z,1.63
2023-05-19T11:53:15.760Z,1.40
2023-05-19T11:55:45.103Z,4.75
2023-05-19T11:58:12.247Z,1.80
2023-05-19T12:00:41.366Z,1.52
2023-05-19T12:03:08.998Z,1.60
2023-05-19T12:05:40.840Z,1.50
2023-05-19T12:08:10.454Z,1.83
2023-05-19T12:10:38.998Z,1.42
2023-05-19T12:13:05.909Z,1.60
2023-05-19T12:15:32.694Z,1.42
2023-05-19T12:18:00.941Z,1.40
2023-05-19T12:20:29.172Z,1.58
2023-05-19T12:22:56.014Z,1.55
2023-05-19T12:25:24.663Z,1.30
2023-05-19T12:27:51.470Z,1.30
2023-05-19T12:30:18.242Z,1.52
2023-05-19T12:32:46.156Z,1.30
2023-05-19T12:35:12.840Z,1.60
2023-05-19T12:37:41.753Z,1.40
2023-05-19T12:40:09.599Z,1.20
2023-05-19T12:42:37.625Z,1.35
2023-05-19T12:45:05.282Z,1.35
2023-05-19T12:47:33.811Z,1.30
2023-05-19T12:50:05.764Z,1.60
2023-05-19T12:52:33.671Z,1.40
2023-05-19T12:55:01.814Z,1.17
2023-05-19T12:57:28.781Z,1.40
2023-05-19T13:00:01.875Z,1.80
2023-05-19T13:02:28.666Z,1.10
2023-05-19T13:04:55.334Z,1.52
2023-05-19T13:07:22.019Z,1.33
2023-05-19T13:09:48.684Z,1.27
2023-05-19T13:12:15.359Z,1.25
2023-05-19T13:14:41.973Z,1.80
2023-05-19T13:17:10.012Z,1.13
2023-05-19T13:19:36.671Z,1.40
2023-05-19T13:22:03.319Z,1.27
2023-05-19T13:24:29.955Z,1.48
2023-05-19T13:26:56.840Z,2.03
2023-05-19T13:29:23.580Z,1.58
2023-05-19T13:31:52.318Z,1.50
2023-05-19T13:34:20.322Z,1.33
2023-05-19T13:36:46.960Z,2.00
2023-05-19T13:39:13.694Z,1.40
2023-05-19T13:41:40.368Z,1.80
2023-05-19T13:44:07.045Z,1.67
2023-05-19T13:46:44.755Z,1.42
2023-05-19T13:49:13.101Z,1.50
2023-05-19T13:51:42.979Z,1.05
2023-05-19T13:54:09.706Z,1.80
2023-05-19T13:56:36.473Z,1.10
2023-05-19T13:59:03.393Z,1.60
2023-05-19T14:01:30.336Z,1.27
2023-05-19T14:03:57.184Z,1.42
2023-05-19T14:06:23.998Z,1.27
2023-05-19T14:08:51.944Z,1.45
2023-05-19T14:11:19.226Z,1.20
2023-05-19T14:13:45.834Z,1.27
2023-05-19T14:16:12.473Z,1.77
2023-05-19T14:18:39.227Z,1.27
2023-05-19T14:21:06.033Z,1.23
2023-05-19T14:23:32.645Z,1.20
2023-05-19T14:26:01.018Z,1.30
2023-05-19T14:28:27.656Z,1.20
2023-05-19T14:30:54.276Z,1.17
2023-05-19T14:33:21.149Z,1.38
2023-05-19T14:35:48.439Z,1.42
2023-05-19T14:38:15.232Z,1.63
2023-05-19T14:40:41.873Z,1.50
2023-05-19T14:43:10.136Z,1.30
2023-05-19T14:45:38.243Z,1.52
2023-05-19T14:48:05.422Z,1.50
2023-05-19T14:50:32.357Z,1.60
2023-05-19T14:52:59.293Z,1.38
2023-05-19T14:55:25.908Z,1.77
2023-05-19T14:57:52.513Z,1.60
2023-05-19T15:00:20.693Z,1.50
2023-05-19T15:02:47.194Z,1.70
2023-05-19T15:05:13.896Z,1.20
2023-05-19T15:07:40.494Z,1.75
2023-05-19T15:10:08.268Z,1.67
2023-05-19T15:12:34.959Z,1.33
2023-05-19T15:15:01.647Z,1.42
2023-05-19T15:17:29.722Z,1.27
2023-05-19T15:19:56.413Z,1.30
2023-05-19T15:22:23.008Z,1.40
2023-05-19T15:24:49.680Z,1.52
2023-05-19T15:27:16.418Z,1.08
2023-05-19T15:29:43.147Z,1.60
2023-05-19T15:32:09.936Z,2.08
2023-05-19T15:34:38.072Z,1.52
2023-05-19T15:37:05.143Z,1.42
2023-05-19T15:39:31.795Z,1.25
2023-05-19T15:41:58.422Z,1.10
2023-05-19T15:44:25.561Z,2.13
2023-05-19T15:46:53.394Z,1.40
2023-05-19T15:49:20.035Z,1.30
2023-05-19T15:51:48.045Z,1.40
2023-05-19T15:54:14.712Z,1.60
2023-05-19T15:56:41.496Z,2.15
2023-05-19T15:59:08.142Z,2.22
2023-05-19T16:01:35.451Z,3.63
2023-05-19T16:04:02.220Z,1.52
2023-05-19T16:06:29.000Z,1.33
2023-05-19T16:08:57.494Z,1.33
2023-05-19T16:11:24.074Z,1.60
2023-05-19T16:13:50.685Z,1.02
2023-05-19T16:16:17.370Z,1.38
2023-05-19T16:18:44.593Z,1.30
2023-05-19T16:21:11.310Z,1.42
2023-05-19T16:23:37.952Z,0.93
2023-05-19T16:26:05.987Z,1.30
2023-05-19T16:28:32.627Z,1.50
2023-05-19T16:30:59.569Z,1.40
2023-05-19T16:33:26.710Z,1.20
2023-05-19T16:35:53.567Z,1.15
2023-05-19T16:38:20.324Z,1.00
2023-05-19T16:40:46.953Z,1.15
2023-05-19T16:43:14.926Z,1.27
2023-05-19T16:45:41.621Z,1.15
2023-05-19T16:48:08.500Z,1.40
2023-05-19T16:50:35.401Z,1.13
2023-05-19T16:53:02.120Z,1.58
2023-05-19T16:55:28.805Z,1.15
2023-05-19T16:57:55.436Z,1.38
2023-05-19T17:00:23.637Z,1.63
2023-05-19T17:02:50.304Z,1.20
2023-05-19T17:05:16.967Z,1.25
2023-05-19T17:07:43.679Z,1.33
2023-05-19T17:10:10.532Z,1.27
2023-05-19T17:12:37.363Z,1.17
2023-05-19T17:15:04.837Z,1.10
2023-05-19T17:17:32.824Z,1.40
2023-05-19T17:19:59.382Z,1.40
2023-05-19T17:24:52.619Z,1.27
2023-05-19T17:27:19.274Z,0.90
2023-05-19T17:29:46.191Z,1.48
2023-05-19T17:32:12.829Z,1.25
2023-05-19T17:34:40.894Z,1.27
2023-05-19T17:37:07.490Z,1.73
2023-05-19T17:39:34.126Z,1.52
2023-05-19T17:42:00.856Z,1.45
2023-05-19T17:44:27.438Z,1.40
2023-05-19T17:46:54.082Z,1.50
2023-05-19T17:49:20.795Z,1.23
2023-05-19T17:51:49.307Z,1.20
2023-05-19T17:54:16.469Z,1.20
2023-05-19T17:56:45.196Z,1.17
2023-05-19T17:59:12.267Z,1.30
2023-05-19T18:01:39.405Z,1.48
2023-05-19T18:04:09.327Z,1.38
2023-05-19T18:06:40.777Z,1.55
2023-05-19T18:09:10.426Z,1.63
2023-05-19T18:11:37.164Z,1.40
2023-05-19T18:14:03.843Z,1.40
2023-05-19T18:16:30.811Z,1.23
2023-05-19T18:19:02.909Z,1.20
2023-05-19T18:21:31.093Z,1.27
2023-05-19T18:24:03.467Z,1.40
2023-05-19T18:26:40.303Z,1.50
2023-05-19T18:29:16.761Z,1.10
2023-05-19T18:31:43.578Z,1.20
2023-05-19T18:34:10.450Z,1.40
2023-05-19T18:36:37.080Z,1.33
2023-05-19T18:39:04.093Z,1.20
2023-05-19T18:41:31.003Z,1.90
2023-05-19T18:43:59.300Z,1.10
2023-05-19T18:46:26.194Z,1.27
2023-05-19T18:48:53.134Z,1.40
2023-05-19T18:51:25.784Z,1.20
2023-05-19T18:53:52.626Z,1.40
2023-05-19T18:56:28.822Z,1.38
2023-05-19T18:58:55.638Z,1.45
2023-05-19T19:01:23.775Z,1.17
2023-05-19T19:03:50.698Z,1.48
2023-05-19T19:06:17.524Z,1.20
2023-05-19T19:08:44.569Z,1.48
2023-05-19T19:11:11.303Z,1.27
2023-05-19T19:13:38.265Z,1.40
2023-05-19T19:16:08.695Z,1.17
2023-05-19T19:18:36.870Z,1.60
2023-05-19T19:21:06.249Z,1.48
2023-05-19T19:23:33.378Z,1.60
2023-05-19T19:26:04.942Z,1.30
2023-05-19T19:28:31.672Z,1.30
2023-05-19T19:30:58.391Z,1.60
2023-05-19T19:33:30.336Z,1.50
2023-05-19T19:35:59.019Z,1.45
2023-05-19T19:38:25.930Z,1.20
2023-05-19T19:40:55.002Z,1.30
2023-05-19T19:43:21.847Z,1.30
2023-05-19T19:45:49.905Z,1.48
2023-05-19T19:48:16.573Z,1.90
2023-05-19T19:50:43.307Z,1.52
2023-05-19T19:53:11.507Z,1.80
2023-05-19T19:55:38.125Z,1.33
2023-05-19T19:58:06.820Z,1.45
2023-05-19T20:00:33.654Z,1.60
2023-05-19T20:03:05.236Z,1.60
2023-05-19T20:05:32.757Z,1.58
2023-05-19T20:07:59.406Z,1.23
2023-05-19T20:10:27.834Z,1.25
2023-05-19T20:12:54.891Z,1.55
2023-05-19T20:15:21.608Z,1.38
2023-05-19T20:17:48.346Z,1.48
2023-05-19T20:20:15.103Z,1.35
2023-05-19T20:22:44.530Z,1.50
2023-05-19T20:25:12.958Z,1.67
2023-05-19T20:27:41.226Z,1.40
2023-05-19T20:30:08.981Z,1.30
2023-05-19T20:32:36.080Z,1.40
2023-05-19T20:35:02.868Z,1.48
2023-05-19T20:37:29.719Z,2.08
2023-05-19T20:39:56.440Z,1.58
2023-05-19T20:42:23.310Z,2.47
2023-05-19T20:44:51.503Z,1.98
2023-05-19T20:47:18.189Z,1.60
2023-05-19T20:49:44.938Z,1.75
2023-05-19T20:52:11.700Z,1.70
2023-05-19T20:54:38.437Z,1.67
2023-05-19T20:57:05.495Z,1.80
2023-05-19T20:59:32.308Z,1.65
2023-05-19T21:02:02.900Z,1.60
2023-05-19T21:04:30.068Z,1.52
2023-05-19T21:06:57.077Z,1.70
2023-05-19T21:09:24.175Z,1.77
2023-05-19T21:11:51.026Z,1.63
2023-05-19T21:14:17.709Z,1.60
2023-05-19T21:16:47.359Z,1.73
2023-05-19T21:19:15.732Z,1.60
2023-05-19T21:21:44.109Z,1.50
2023-05-19T21:24:14.097Z,1.70
2023-05-19T21:26:41.537Z,2.13
2023-05-19T21:29:09.799Z,1.50
2023-05-19T21:31:36.540Z,1.65
2023-05-19T21:34:04.456Z,1.98
2023-05-19T21:36:32.494Z,1.48
2023-05-19T21:38:59.170Z,1.40
2023-05-19T21:41:25.913Z,1.50
2023-05-19T21:43:52.552Z,1.60
2023-05-19T21:46:19.302Z,1.60
2023-05-19T21:48:46.027Z,1.55
2023-05-19T21:51:15.662Z,1.45
2023-05-19T21:53:43.720Z,1.77
2023-05-19T21:56:10.491Z,1.50
2023-05-19T21:58:40.089Z,1.55
2023-05-19T22:01:07.104Z,1.67
2023-05-19T22:03:34.062Z,1.40
2023-05-19T22:06:00.969Z,1.58
2023-05-19T22:08:29.619Z,1.60
2023-05-19T22:11:00.214Z,1.58
2023-05-19T22:13:26.998Z,1.20
2023-05-19T22:15:53.768Z,1.55
2023-05-19T22:18:20.643Z,1.75
2023-05-19T22:20:47.452Z,1.50
2023-05-19T22:23:14.484Z,1.40
2023-05-19T22:25:41.570Z,1.48
2023-05-19T22:28:12.695Z,1.65
2023-05-19T22:30:43.529Z,1.77
2023-05-19T22:33:15.040Z,1.50
2023-05-19T22:35:42.351Z,1.55
2023-05-19T22:38:10.824Z,1.48
2023-05-19T22:40:40.330Z,1.52
2023-05-19T22:43:07.079Z,1.48
2023-05-19T22:45:35.811Z,1.42
2023-05-19T22:48:02.965Z,1.80
2023-05-19T22:50:29.891Z,1.73
2023-05-19T22:52:58.769Z,1.50
2023-05-19T22:55:25.524Z,1.52
2023-05-19T22:57:52.226Z,1.48
2023-05-19T23:00:26.854Z,1.42
2023-05-19T23:02:55.498Z,1.77
2023-05-19T23:05:22.216Z,1.40
2023-05-19T23:07:48.958Z,1.58
2023-05-19T23:10:15.805Z,1.52
2023-05-19T23:12:42.655Z,1.80
2023-05-19T23:15:14.770Z,1.60
2023-05-19T23:20:10.971Z,1.70
2023-05-19T23:22:37.724Z,1.58
2023-05-19T23:25:05.245Z,1.50
2023-05-19T23:27:31.907Z,1.27
2023-05-19T23:29:58.796Z,1.58
2023-05-19T23:32:25.603Z,1.20
2023-05-19T23:34:52.370Z,1.42
2023-05-19T23:37:20.453Z,1.63
2023-05-19T23:39:47.212Z,1.73
2023-05-19T23:42:13.979Z,1.70
2023-05-19T23:44:40.686Z,1.70
2023-05-19T23:47:07.432Z,1.63
2023-05-19T23:49:34.297Z,1.75
2023-05-19T23:52:00.959Z,1.88
2023-05-19T23:54:29.179Z,1.50
2023-05-19T23:56:55.972Z,1.65
2023-05-19T23:59:25.983Z,1.60
